Time;durP1;ratioP1;P1;durP2;ratioP2;P2;SDS_P1;SDS_P2;PMS_P1;PMS_P2;Temp;Humidity;BMP_temperature;BMP_pressure;BME280_temperature;BME280_humidity;BME280_pressure;Samples;Min_cycle;Max_cycle;Signal;HPM_P1;HPM_P2
2022/09/11 00:07:17;;;;;;;3.33;0.95;;;;;;;22.29;42.33;100087.22;20682643;28;20080;-78
2022/09/11 00:17:17;;;;;;;1.42;1.00;;;;;;;22.24;42.41;100087.63;20679471;28;20061;-78
2022/09/11 00:27:18;;;;;;;1.88;0.90;;;;;;;22.22;42.96;100071.91;20674198;28;20549;-78
2022/09/11 00:37:18;;;;;;;0.70;0.70;;;;;;;22.15;42.89;100068.16;20683698;28;20040;-80
2022/09/11 00:47:19;;;;;;;1.20;0.70;;;;;;;22.12;42.82;100070.22;20682112;28;20488;-77
2022/09/11 00:57:23;;;;;;;0.90;0.50;;;;;;;22.09;43.13;100075.78;20678778;28;20188;-77
2022/09/11 01:07:25;;;;;;;2.35;0.70;;;;;;;21.98;43.19;100079.31;20678243;28;20602;-77
2022/09/11 01:17:39;;;;;;;0.40;0.40;;;;;;;21.91;42.94;100074.56;20671124;28;20051;-77
2022/09/11 01:27:42;;;;;;;0.82;0.40;;;;;;;21.84;42.83;100065.53;20679906;28;20081;-77
2022/09/11 01:38:13;;;;;;;0.65;0.22;;;;;;;21.80;43.15;100052.72;20680633;28;20169;-79
2022/09/11 01:48:19;;;;;;;1.63;0.40;;;;;;;21.78;42.84;100055.50;20681541;28;20050;-77
2022/09/11 01:58:25;;;;;;;1.27;0.55;;;;;;;21.73;42.85;100055.06;20679879;28;20061;-77
2022/09/11 02:08:45;;;;;;;0.40;0.40;;;;;;;21.67;43.30;100045.88;20685425;28;20042;-77
2022/09/11 02:19:05;;;;;;;1.50;0.43;;;;;;;21.66;43.31;100041.56;20676669;28;20100;-78
2022/09/11 02:29:06;;;;;;;0.47;0.40;;;;;;;21.59;43.58;100033.34;20682650;28;20046;-77
2022/09/11 02:39:09;;;;;;;2.30;0.57;;;;;;;21.51;44.03;100029.69;20693215;28;20041;-77
2022/09/11 02:49:38;;;;;;;0.68;0.50;;;;;;;21.51;44.06;100027.03;20693300;28;20098;-77
2022/09/11 02:59:49;;;;;;;1.90;0.50;;;;;;;21.48;43.91;100043.09;20688179;28;20044;-77
2022/09/11 03:09:50;;;;;;;1.48;0.60;;;;;;;21.42;44.38;100040.03;20691449;28;20045;-77
2022/09/11 03:19:50;;;;;;;1.65;0.98;;;;;;;21.36;44.45;100053.72;20667701;28;20089;-77
2022/09/11 03:29:51;;;;;;;2.45;0.65;;;;;;;21.37;44.34;100049.25;20686216;28;20122;-77
2022/09/11 03:39:53;;;;;;;1.20;1.10;;;;;;;21.33;44.65;100045.22;20687618;28;20049;-77
2022/09/11 03:49:54;;;;;;;2.90;0.50;;;;;;;21.32;44.73;100033.84;20679652;28;20038;-76
2022/09/11 03:59:55;;;;;;;1.65;0.68;;;;;;;21.24;44.83;100044.19;20683942;28;20038;-77
2022/09/11 04:09:57;;;;;;;0.35;0.20;;;;;;;21.24;44.70;100050.28;20682473;28;20052;-76
2022/09/11 04:19:57;;;;;;;2.33;0.40;;;;;;;21.23;44.64;100045.16;20689001;28;20065;-77
2022/09/11 04:29:57;;;;;;;0.93;0.55;;;;;;;21.27;44.50;100052.66;20673445;28;20091;-77
2022/09/11 04:39:59;;;;;;;1.00;0.40;;;;;;;21.28;44.58;100046.44;20663229;28;21028;-77
2022/09/11 04:50:01;;;;;;;2.08;0.40;;;;;;;21.29;44.40;100031.47;20675831;28;20051;-76
2022/09/11 05:00:01;;;;;;;1.93;0.37;;;;;;;21.24;44.86;100029.22;20674090;28;20034;-77
2022/09/11 05:10:02;;;;;;;1.77;0.43;;;;;;;21.30;44.85;100042.84;20679687;28;20084;-77
2022/09/11 05:20:03;;;;;;;0.70;0.40;;;;;;;21.27;45.33;100043.94;20677944;28;20053;-77
2022/09/11 05:30:03;;;;;;;0.88;0.50;;;;;;;21.23;45.43;100039.88;20671714;28;20038;-75
2022/09/11 05:40:05;;;;;;;0.93;0.80;;;;;;;21.25;45.74;100059.00;20664468;28;20053;-75
2022/09/11 05:50:06;;;;;;;0.90;0.85;;;;;;;21.55;45.70;100063.50;20636770;28;20958;-75
2022/09/11 06:00:07;;;;;;;1.45;0.77;;;;;;;21.70;46.62;100060.59;20655431;28;20057;-75
2022/09/11 06:10:08;;;;;;;4.85;0.82;;;;;;;21.85;46.47;100061.06;20675278;28;20103;-75
2022/09/11 06:20:11;;;;;;;3.40;1.02;;;;;;;21.98;46.52;100058.22;20700948;28;20042;-76
2022/09/11 06:30:11;;;;;;;3.20;0.85;;;;;;;22.11;46.23;100065.94;20674512;28;20046;-77
2022/09/11 06:40:13;;;;;;;0.90;0.77;;;;;;;22.21;46.11;100067.59;20693330;28;20069;-83
2022/09/11 06:50:14;;;;;;;4.18;1.13;;;;;;;22.32;46.12;100071.13;20713585;28;20049;-81
2022/09/11 07:00:14;;;;;;;2.33;0.88;;;;;;;22.45;46.33;100063.00;20695434;28;20120;-86
2022/09/11 07:10:16;;;;;;;3.42;0.93;;;;;;;22.53;46.23;100074.56;20698647;28;20042;-82
2022/09/11 07:20:17;;;;;;;1.00;0.83;;;;;;;22.62;46.37;100066.78;20695561;28;20049;-83
2022/09/11 07:30:18;;;;;;;2.80;0.70;;;;;;;22.69;46.47;100073.19;20686945;28;20119;-87
2022/09/11 07:40:20;;;;;;;1.60;0.63;;;;;;;22.76;46.22;100061.09;20694476;28;20046;-83
2022/09/11 07:50:23;;;;;;;2.13;0.80;;;;;;;22.80;45.91;100056.41;20702304;28;20049;-81
2022/09/11 08:00:23;;;;;;;1.88;0.80;;;;;;;22.81;46.01;100048.34;20691310;28;20080;-89
2022/09/11 08:10:25;;;;;;;3.03;0.80;;;;;;;22.92;46.15;100060.56;20678866;28;20030;-79
2022/09/11 08:20:26;;;;;;;3.07;1.20;;;;;;;22.98;45.96;100060.00;20635266;28;20514;-75
2022/09/11 08:30:27;;;;;;;2.77;0.93;;;;;;;23.03;46.35;100064.88;20640918;28;20931;-77
2022/09/11 08:40:29;;;;;;;4.63;1.10;;;;;;;23.08;46.07;100044.16;20693859;28;20120;-76
2022/09/11 08:50:38;;;;;;;3.05;0.90;;;;;;;23.13;46.16;100056.94;20690372;28;20909;-76
2022/09/11 09:01:20;;;;;;;5.18;1.00;;;;;;;23.13;45.75;100068.38;20678531;28;20038;-76
2022/09/11 09:12:02;;;;;;;1.55;0.68;;;;;;;23.20;45.66;100075.75;20679228;28;20088;-76
2022/09/11 09:22:09;;;;;;;2.35;0.80;;;;;;;23.25;45.53;100079.63;20673484;28;20247;-76
2022/09/11 09:32:17;;;;;;;6.90;1.40;;;;;;;23.32;46.57;100078.09;20665781;28;20034;-75
2022/09/11 09:42:21;;;;;;;2.35;0.80;;;;;;;22.81;45.28;100076.53;20670025;28;20046;-73
2022/09/11 09:52:30;;;;;;;2.55;0.70;;;;;;;22.65;44.59;100074.44;20661837;28;20037;-74
2022/09/11 10:02:37;;;;;;;0.93;0.30;;;;;;;22.67;44.30;100061.94;20653629;28;20112;-76
2022/09/11 10:12:44;;;;;;;1.08;0.70;;;;;;;22.82;43.43;100041.25;20652322;28;20064;-78
2022/09/11 10:22:49;;;;;;;1.30;0.60;;;;;;;23.00;43.47;100034.31;20698207;28;20046;-80
2022/09/11 10:32:50;;;;;;;0.90;0.50;;;;;;;23.06;43.33;100032.94;20626801;28;22782;-74
2022/09/11 10:42:51;;;;;;;0.75;0.70;;;;;;;23.00;43.72;100031.66;20638833;28;20663;-76
2022/09/11 10:53:19;;;;;;;0.50;0.50;;;;;;;23.06;43.87;100029.44;20658368;28;20041;-76
2022/09/11 11:03:23;;;;;;;1.23;0.75;;;;;;;22.93;44.06;100033.19;20691703;28;20038;-75
2022/09/11 11:13:48;;;;;;;19.52;5.68;;;;;;;23.06;46.18;100032.94;20608588;28;20042;-76
2022/09/11 11:24:06;;;;;;;4.47;1.95;;;;;;;23.17;46.13;100026.69;20590423;28;20053;-74
2022/09/11 11:34:45;;;;;;;5.97;1.10;;;;;;;23.31;46.19;100014.84;20642873;28;20072;-76
2022/09/11 11:44:53;;;;;;;0.73;0.73;;;;;;;23.37;45.23;100011.63;20668198;28;20642;-75
2022/09/11 11:55:01;;;;;;;1.42;1.13;;;;;;;23.33;45.14;100015.56;20657668;28;20044;-74
2022/09/11 12:05:16;;;;;;;1.38;1.00;;;;;;;23.16;45.06;100015.28;20672515;28;20096;-76
2022/09/11 12:15:19;;;;;;;1.95;0.80;;;;;;;23.26;44.72;100009.16;20678095;28;20072;-74
2022/09/11 12:25:20;;;;;;;1.10;0.70;;;;;;;23.22;43.65;100005.13;20670582;28;20104;-74
2022/09/11 12:35:26;;;;;;;0.63;0.63;;;;;;;23.20;42.94;100000.00;20674861;28;20083;-74
2022/09/11 12:45:35;;;;;;;23.48;8.80;;;;;;;23.24;41.74;99995.25;20668479;28;20050;-76
2022/09/11 12:55:53;;;;;;;8.68;3.40;;;;;;;23.14;41.86;100000.53;20681638;28;20042;-76
2022/09/11 13:06:15;;;;;;;2.72;1.30;;;;;;;23.12;42.74;99990.09;20686211;28;22550;-76
2022/09/11 13:16:27;;;;;;;3.03;1.05;;;;;;;23.27;43.57;99987.06;20664078;28;20046;-75
2022/09/11 13:26:31;;;;;;;2.15;0.60;;;;;;;23.37;43.67;99974.66;20663908;28;20050;-75
2022/09/11 13:36:34;;;;;;;1.00;0.50;;;;;;;23.28;42.89;99959.69;20671629;28;20057;-75
2022/09/11 13:46:47;;;;;;;0.65;0.50;;;;;;;23.28;41.82;99939.34;20668402;28;20505;-75
2022/09/11 13:56:54;;;;;;;0.93;0.30;;;;;;;23.53;40.34;99946.78;20664721;28;20059;-74
2022/09/11 14:06:54;;;;;;;1.35;0.75;;;;;;;23.63;40.60;99947.56;20646338;28;20056;-75
2022/09/11 14:17:00;;;;;;;0.83;0.70;;;;;;;23.78;40.35;99929.44;20627613;28;20041;-75
2022/09/11 14:27:40;;;;;;;10.85;0.63;;;;;;;23.92;40.00;99928.09;20641627;28;20158;-76
2022/09/11 14:37:44;;;;;;;0.93;0.60;;;;;;;24.12;39.81;99919.09;20654271;28;20111;-76
2022/09/11 14:47:45;;;;;;;1.70;0.35;;;;;;;24.01;40.00;99932.53;20650455;28;20519;-76
2022/09/11 14:57:46;;;;;;;1.50;0.93;;;;;;;23.91;40.86;99958.16;20686730;28;20034;-75
2022/09/11 15:07:47;;;;;;;2.07;1.30;;;;;;;23.88;41.91;99954.00;20707471;28;20041;-76
2022/09/11 15:17:48;;;;;;;1.10;0.90;;;;;;;24.23;43.00;99948.94;20714427;28;20397;-76
2022/09/11 15:27:51;;;;;;;3.03;0.98;;;;;;;24.37;42.82;99942.31;20696347;28;20049;-79
2022/09/11 15:37:52;;;;;;;1.20;0.98;;;;;;;24.75;41.87;99943.81;20641167;28;20053;-76
2022/09/11 15:47:52;;;;;;;;;;;;;;;24.94;42.25;99939.34;20641911;28;20053;-75
2022/09/11 15:57:53;;;;;;;1.98;0.70;;;;;;;25.21;41.08;99927.75;20664782;28;19922;-76
2022/09/11 16:07:53;;;;;;;0.88;0.68;;;;;;;24.88;41.08;99930.22;20682711;28;20046;-76
2022/09/11 16:17:54;;;;;;;0.90;0.70;;;;;;;24.68;41.38;99934.88;20652244;28;20086;-77
2022/09/11 16:27:57;;;;;;;1.42;0.73;;;;;;;24.46;41.74;99954.63;20650825;28;20592;-75
2022/09/11 16:37:59;;;;;;;2.25;0.60;;;;;;;24.25;42.28;99955.75;20620115;28;20726;-75
2022/09/11 16:47:59;;;;;;;14.70;11.25;;;;;;;24.08;41.65;99961.84;20635802;28;20188;-76
2022/09/11 16:58:00;;;;;;;3.33;1.98;;;;;;;23.91;41.56;99964.31;20665792;28;20054;-77
2022/09/11 17:08:00;;;;;;;2.78;0.70;;;;;;;23.71;41.55;99966.19;20673351;28;20120;-76
2022/09/11 17:18:01;;;;;;;2.75;0.70;;;;;;;23.69;42.17;99964.66;20655790;28;20045;-78
2022/09/11 17:28:01;;;;;;;1.10;0.60;;;;;;;23.57;42.62;99970.16;20661025;28;20045;-79
2022/09/11 17:38:02;;;;;;;0.75;0.65;;;;;;;23.50;43.10;99969.06;20672656;28;20045;-76
2022/09/11 17:48:09;;;;;;;0.97;0.60;;;;;;;23.42;43.66;99987.44;20668370;28;20049;-77
2022/09/11 17:58:09;;;;;;;1.30;1.00;;;;;;;23.63;44.03;99989.88;20642578;28;20053;-76
2022/09/11 18:08:09;;;;;;;14.32;5.22;;;;;;;23.72;44.22;99996.94;20661783;28;20054;-75
2022/09/11 18:18:10;;;;;;;22.65;7.28;;;;;;;23.80;44.81;100010.28;20658030;28;20049;-75
2022/09/11 18:28:10;;;;;;;22.75;8.02;;;;;;;23.89;45.24;100018.28;20648079;28;20042;-73
2022/09/11 18:38:11;;;;;;;21.77;7.40;;;;;;;23.86;45.49;100016.75;20639765;28;20100;-77
2022/09/11 18:48:12;;;;;;;20.43;7.43;;;;;;;23.86;45.01;100014.13;20654447;28;20050;-77
2022/09/11 18:58:12;;;;;;;20.08;7.28;;;;;;;23.83;45.22;100020.53;20639346;28;20042;-80
2022/09/11 19:08:12;;;;;;;17.92;6.78;;;;;;;23.86;45.13;100015.94;20684926;28;20050;-75
2022/09/11 19:18:13;;;;;;;15.23;5.80;;;;;;;23.85;45.70;100023.03;20673393;28;20057;-75
2022/09/11 19:28:14;;;;;;;8.98;3.85;;;;;;;23.89;46.51;100026.22;20677083;28;20045;-75
2022/09/11 19:38:15;;;;;;;7.28;3.60;;;;;;;23.86;46.16;100016.75;20678043;28;20084;-75
2022/09/11 19:48:16;;;;;;;7.35;2.80;;;;;;;23.83;45.58;100012.59;20672339;28;20053;-75
2022/09/11 19:58:17;;;;;;;5.07;2.17;;;;;;;23.81;45.17;100032.25;20688596;28;20635;-75
2022/09/11 20:08:17;;;;;;;3.50;1.70;;;;;;;23.81;44.99;100032.25;20678354;28;20050;-74
2022/09/11 20:18:18;;;;;;;3.33;1.67;;;;;;;23.78;44.94;100027.25;20672984;28;20066;-75
2022/09/11 20:28:18;;;;;;;1.90;1.40;;;;;;;23.75;44.87;100038.94;20682627;28;20495;-74
2022/09/11 20:38:19;;;;;;;1.20;1.10;;;;;;;23.74;45.01;100045.22;20682991;28;20120;-75
2022/09/11 20:48:19;;;;;;;1.37;1.27;;;;;;;23.71;44.86;100037.56;20677575;28;20604;-75
2022/09/11 20:58:20;;;;;;;1.58;1.13;;;;;;;23.74;44.88;100042.56;20683536;28;20378;-75
2022/09/11 21:08:21;;;;;;;2.60;1.30;;;;;;;23.71;45.08;100058.72;20677139;28;20092;-75
2022/09/11 21:18:21;;;;;;;1.20;1.10;;;;;;;23.69;44.74;100067.75;20690506;28;20451;-75
2022/09/11 21:28:22;;;;;;;0.90;0.90;;;;;;;23.66;45.06;100059.13;20681272;28;20825;-75
2022/09/11 21:38:27;;;;;;;1.10;1.00;;;;;;;23.63;44.94;100056.78;20695757;28;20049;-75
2022/09/11 21:48:27;;;;;;;0.80;0.80;;;;;;;23.62;45.16;100064.84;20680437;28;20112;-76
2022/09/11 21:58:28;;;;;;;2.35;1.00;;;;;;;23.63;45.18;100064.72;20672443;28;21154;-78
2022/09/11 22:08:28;;;;;;;1.30;1.00;;;;;;;23.65;45.42;100057.47;20658168;28;20060;-77
2022/09/11 22:18:29;;;;;;;3.42;1.10;;;;;;;23.64;45.30;100049.69;20657176;28;20069;-77
2022/09/11 22:28:29;;;;;;;1.33;1.00;;;;;;;23.66;45.55;100059.13;20647607;28;20049;-76
2022/09/11 22:38:29;;;;;;;1.10;1.00;;;;;;;23.67;45.60;100059.97;20654774;28;20071;-77
2022/09/11 22:48:30;;;;;;;1.13;1.00;;;;;;;23.65;45.60;100067.22;20662197;28;20038;-77
2022/09/11 22:58:30;;;;;;;1.08;0.98;;;;;;;23.67;45.85;100071.38;20671648;28;20086;-77
2022/09/11 23:08:34;;;;;;;1.10;1.00;;;;;;;23.68;45.54;100074.88;20661209;28;20072;-77
2022/09/11 23:18:34;;;;;;;1.00;0.90;;;;;;;23.66;45.88;100072.34;20673161;28;20526;-76
2022/09/11 23:28:35;;;;;;;1.27;1.00;;;;;;;23.67;46.26;100081.94;20668225;28;20057;-76
2022/09/11 23:38:36;;;;;;;0.90;0.90;;;;;;;23.67;45.96;100079.31;20666697;28;20042;-76
2022/09/11 23:48:37;;;;;;;1.60;1.00;;;;;;;23.67;46.09;100087.25;20646912;28;20121;-76
2022/09/11 23:58:39;;;;;;;0.97;0.80;;;;;;;23.66;46.28;100090.03;20647519;28;20049;-75
